createdAt,value
2022-08-11T00:01:27.855Z,4.35
2022-08-11T00:03:56.972Z,2.40
2022-08-11T00:06:29.722Z,2.30
2022-08-11T00:08:58.953Z,2.13
2022-08-11T00:11:52.152Z,2.30
2022-08-11T00:14:33.687Z,2.63
2022-08-11T00:17:13.174Z,2.47
2022-08-11T00:20:14.779Z,3.08
2022-08-11T00:22:35.521Z,2.70
2022-08-11T00:25:15.686Z,2.33
2022-08-11T00:27:44.103Z,1.75
2022-08-11T00:30:18.343Z,2.17
2022-08-11T00:32:55.073Z,2.53
2022-08-11T00:35:54.321Z,2.47
2022-08-11T00:38:18.860Z,2.30
2022-08-11T00:41:13.308Z,3.28
2022-08-11T00:44:16.753Z,2.72
2022-08-11T00:46:53.471Z,2.85
2022-08-11T00:50:01.175Z,2.72
2022-08-11T00:52:53.666Z,1.83
2022-08-11T00:55:34.142Z,3.28
2022-08-11T00:58:33.042Z,2.30
2022-08-11T01:01:17.639Z,2.30
2022-08-11T01:04:17.426Z,3.05
2022-08-11T01:06:51.405Z,2.20
2022-08-11T01:10:10.344Z,2.78
2022-08-11T01:12:53.168Z,2.75
2022-08-11T01:15:59.570Z,4.13
2022-08-11T01:18:45.028Z,2.42
2022-08-11T01:21:36.036Z,1.92
2022-08-11T01:24:41.059Z,2.60
2022-08-11T01:27:33.543Z,1.83
2022-08-11T01:30:30.831Z,2.50
2022-08-11T01:33:43.367Z,3.20
2022-08-11T01:36:53.530Z,2.70
2022-08-11T01:39:36.448Z,2.60
2022-08-11T01:42:37.880Z,2.85
2022-08-11T01:45:43.371Z,3.17
2022-08-11T01:48:50.078Z,3.33
2022-08-11T01:51:44.697Z,2.95
2022-08-11T01:54:36.008Z,2.72
2022-08-11T01:57:21.567Z,3.08
2022-08-11T02:00:02.593Z,3.15
2022-08-11T02:02:50.139Z,3.38
2022-08-11T02:05:27.287Z,2.88
2022-08-11T02:08:33.185Z,3.50
2022-08-11T02:11:28.783Z,3.05
2022-08-11T02:14:22.458Z,3.22
2022-08-11T02:17:05.457Z,3.33
2022-08-11T02:20:13.633Z,3.03
2022-08-11T02:24:03.867Z,2.50
2022-08-11T02:26:10.152Z,2.97
2022-08-11T02:28:57.592Z,3.42
2022-08-11T02:32:05.139Z,3.45
2022-08-11T02:35:08.512Z,3.28
2022-08-11T02:37:36.089Z,3.42
2022-08-11T02:40:22.112Z,2.78
2022-08-11T02:43:06.074Z,3.08
2022-08-11T02:45:54.937Z,4.28
2022-08-11T02:49:03.271Z,3.05
2022-08-11T02:51:45.149Z,4.53
2022-08-11T02:54:32.619Z,4.05
2022-08-11T02:57:03.400Z,2.78
2022-08-11T02:59:50.797Z,3.20
2022-08-11T03:02:43.617Z,3.10
2022-08-11T03:05:14.571Z,2.40
2022-08-11T03:08:16.105Z,3.08
2022-08-11T03:11:06.690Z,3.17
2022-08-11T03:13:57.592Z,3.20
2022-08-11T03:16:46.553Z,3.35
2022-08-11T03:19:35.936Z,3.08
2022-08-11T03:22:30.283Z,3.65
2022-08-11T03:25:18.424Z,3.83
2022-08-11T03:27:58.448Z,3.55
2022-08-11T03:30:44.016Z,3.50
2022-08-11T03:33:35.935Z,3.80
2022-08-11T03:36:06.120Z,3.90
2022-08-11T03:38:55.939Z,3.42
2022-08-11T03:42:03.542Z,3.40
2022-08-11T03:45:08.518Z,3.03
2022-08-11T03:48:14.449Z,3.15
2022-08-11T03:50:55.005Z,3.03
2022-08-11T03:53:49.724Z,3.25
2022-08-11T03:56:50.488Z,2.83
2022-08-11T04:00:00.765Z,3.17
2022-08-11T04:03:16.830Z,3.25
2022-08-11T04:06:17.300Z,3.22
2022-08-11T04:09:18.667Z,4.00
2022-08-11T04:15:42.484Z,4.32
2022-08-11T04:18:16.427Z,3.92
2022-08-11T04:21:03.202Z,3.65
2022-08-11T04:24:37.024Z,3.63
2022-08-11T04:27:01.923Z,3.57
2022-08-11T04:30:03.316Z,5.00
2022-08-11T04:32:59.903Z,3.17
2022-08-11T04:36:10.278Z,3.65
2022-08-11T04:39:03.969Z,3.35
2022-08-11T04:42:31.512Z,2.83
2022-08-11T04:45:02.470Z,5.03
2022-08-11T04:48:05.791Z,3.42
2022-08-11T04:51:37.433Z,4.10
2022-08-11T04:55:01.869Z,4.13
2022-08-11T04:58:31.268Z,3.88
2022-08-11T05:01:39.027Z,4.53
2022-08-11T05:04:59.260Z,3.90
2022-08-11T05:07:29.780Z,3.95
2022-08-11T05:10:29.414Z,4.10
2022-08-11T05:13:22.028Z,3.97
2022-08-11T05:16:16.455Z,4.00
2022-08-11T05:19:19.714Z,3.72
2022-08-11T05:22:19.840Z,3.13
2022-08-11T05:25:09.524Z,4.13
2022-08-11T05:28:03.230Z,4.15
2022-08-11T05:30:51.096Z,3.65
2022-08-11T05:33:49.237Z,4.82
2022-08-11T05:36:42.194Z,3.67
2022-08-11T05:39:45.204Z,4.22
2022-08-11T05:42:35.810Z,3.58
2022-08-11T05:46:02.510Z,3.45
2022-08-11T05:48:39.469Z,3.58
2022-08-11T05:51:30.275Z,4.97
2022-08-11T05:57:01.954Z,4.78
2022-08-11T05:59:33.491Z,4.18
2022-08-11T06:02:03.617Z,3.97
2022-08-11T06:04:32.098Z,4.30
2022-08-11T06:07:11.522Z,3.47
2022-08-11T06:09:49.324Z,3.33
2022-08-11T06:12:26.824Z,3.92
2022-08-11T06:14:56.545Z,3.67
2022-08-11T06:17:27.264Z,3.42
2022-08-11T06:20:12.408Z,3.22
2022-08-11T06:22:52.384Z,4.05
2022-08-11T06:25:21.739Z,3.28
2022-08-11T06:27:58.711Z,3.92
2022-08-11T06:30:45.273Z,3.10
2022-08-11T06:33:29.753Z,3.03
2022-08-11T06:36:29.669Z,3.70
2022-08-11T06:39:21.258Z,2.97
2022-08-11T06:41:57.699Z,3.63
2022-08-11T06:44:41.292Z,4.15
2022-08-11T06:47:24.891Z,3.22
2022-08-11T06:50:16.441Z,3.42
2022-08-11T06:52:59.904Z,3.25
2022-08-11T06:55:56.597Z,2.85
2022-08-11T06:58:53.730Z,3.08
2022-08-11T07:01:47.881Z,3.03
2022-08-11T07:04:27.737Z,3.40
2022-08-11T07:07:31.211Z,4.32
2022-08-11T07:10:57.350Z,3.30
2022-08-11T07:13:46.102Z,3.38
2022-08-11T07:16:25.775Z,3.28
2022-08-11T07:19:22.625Z,2.72
2022-08-11T07:22:10.214Z,3.28
2022-08-11T07:25:21.515Z,2.95
2022-08-11T07:30:57.689Z,3.53
2022-08-11T07:34:06.917Z,3.17
2022-08-11T07:36:45.942Z,3.50
2022-08-11T07:39:26.631Z,2.83
2022-08-11T07:41:58.348Z,2.85
2022-08-11T07:44:34.435Z,4.05
2022-08-11T07:47:21.904Z,3.63
2022-08-11T07:50:11.651Z,2.70
2022-08-11T07:52:53.971Z,3.28
2022-08-11T07:55:50.805Z,3.38
2022-08-11T07:58:45.285Z,3.70
2022-08-11T08:01:41.245Z,3.00
2022-08-11T08:04:30.429Z,2.58
2022-08-11T08:07:19.717Z,3.42
2022-08-11T08:10:08.390Z,3.15
2022-08-11T08:12:55.524Z,2.72
2022-08-11T08:15:44.940Z,2.75
2022-08-11T08:18:26.551Z,3.15
2022-08-11T08:21:12.434Z,2.88
2022-08-11T08:23:43.841Z,3.63
2022-08-11T08:26:36.911Z,2.60
2022-08-11T08:29:30.622Z,2.67
2022-08-11T08:31:58.521Z,2.92
2022-08-11T08:34:27.654Z,3.50
2022-08-11T08:37:01.063Z,2.42
2022-08-11T08:39:29.933Z,2.75
2022-08-11T08:42:02.859Z,2.80
2022-08-11T08:44:39.138Z,2.42
2022-08-11T08:47:14.026Z,3.55
2022-08-11T08:49:50.763Z,3.38
2022-08-11T08:52:27.859Z,3.85
2022-08-11T08:55:04.396Z,3.08
2022-08-11T08:57:39.414Z,3.40
2022-08-11T09:00:12.524Z,3.45
2022-08-11T09:02:43.340Z,2.85
2022-08-11T09:05:12.579Z,3.33
2022-08-11T09:07:41.521Z,2.58
2022-08-11T09:10:11.642Z,2.97
2022-08-11T09:12:42.817Z,2.30
2022-08-11T09:15:13.342Z,2.97
2022-08-11T09:17:46.386Z,3.00
2022-08-11T09:20:22.999Z,3.35
2022-08-11T09:24:07.386Z,2.72
2022-08-11T09:26:19.122Z,3.20
2022-08-11T09:28:48.982Z,3.40
2022-08-11T09:31:17.224Z,3.17
2022-08-11T09:33:45.891Z,3.50
2022-08-11T09:36:32.663Z,3.50
2022-08-11T09:39:21.362Z,2.97
2022-08-11T09:42:00.441Z,2.67
2022-08-11T09:44:52.900Z,3.03
2022-08-11T09:47:29.870Z,3.08
2022-08-11T09:50:01.027Z,2.70
2022-08-11T09:52:52.378Z,3.22
2022-08-11T09:55:29.806Z,2.90
2022-08-11T09:58:41.879Z,3.03
2022-08-11T10:01:05.346Z,3.40
2022-08-11T10:03:40.240Z,2.38
2022-08-11T10:06:33.358Z,2.58
2022-08-11T10:09:06.300Z,2.03
2022-08-11T10:11:36.619Z,3.22
2022-08-11T10:14:33.520Z,3.03
2022-08-11T10:17:08.722Z,2.33
2022-08-11T10:19:38.554Z,3.72
2022-08-11T10:22:27.577Z,2.25
2022-08-11T10:25:20.049Z,2.95
2022-08-11T10:28:30.371Z,2.33
2022-08-11T10:31:22.033Z,2.38
2022-08-11T10:34:09.239Z,3.88
2022-08-11T10:36:51.161Z,2.67
2022-08-11T10:39:21.021Z,2.35
2022-08-11T10:42:12.173Z,2.07
2022-08-11T10:44:48.319Z,2.60
2022-08-11T10:47:34.978Z,2.47
2022-08-11T10:50:30.149Z,2.88
2022-08-11T10:53:18.199Z,2.70
2022-08-11T10:56:06.612Z,2.75
2022-08-11T10:58:49.661Z,1.65
2022-08-11T11:01:26.798Z,2.65
2022-08-11T11:04:15.675Z,1.77
2022-08-11T11:07:05.984Z,3.78
2022-08-11T11:09:40.864Z,2.92
2022-08-11T11:12:37.685Z,2.13
2022-08-11T11:15:25.908Z,2.53
2022-08-11T11:18:01.821Z,1.92
2022-08-11T11:20:41.633Z,3.00
2022-08-11T11:23:32.188Z,2.20
2022-08-11T11:26:28.001Z,1.80
2022-08-11T11:29:26.149Z,1.92
2022-08-11T11:32:22.477Z,1.88
2022-08-11T11:35:27.811Z,2.38
2022-08-11T11:38:04.200Z,2.58
2022-08-11T11:40:33.622Z,2.40
2022-08-11T11:43:01.843Z,5.07
2022-08-11T11:45:30.473Z,1.73
2022-08-11T11:48:00.094Z,1.98
2022-08-11T11:50:34.804Z,1.90
2022-08-11T11:53:05.652Z,2.63
2022-08-11T11:55:34.114Z,1.85
2022-08-11T11:58:22.879Z,2.13
2022-08-11T12:01:13.493Z,2.45
2022-08-11T12:03:42.168Z,3.17
2022-08-11T12:06:14.308Z,2.00
2022-08-11T12:08:43.233Z,2.28
2022-08-11T12:11:31.956Z,1.63
2022-08-11T12:14:10.333Z,2.40
2022-08-11T12:16:41.349Z,1.50
2022-08-11T12:19:14.960Z,2.05
2022-08-11T12:22:02.675Z,1.88
2022-08-11T12:24:51.223Z,2.75
2022-08-11T12:27:25.120Z,2.10
2022-08-11T12:30:11.253Z,1.80
2022-08-11T12:32:41.306Z,2.13
2022-08-11T12:35:09.693Z,2.10
2022-08-11T12:37:41.519Z,2.17
2022-08-11T12:40:43.782Z,1.85
2022-08-11T12:43:43.347Z,1.77
2022-08-11T12:46:16.741Z,1.85
2022-08-11T12:49:11.070Z,1.55
2022-08-11T12:52:14.867Z,1.65
2022-08-11T12:54:57.667Z,3.67
2022-08-11T12:57:55.251Z,3.25
2022-08-11T13:00:43.240Z,1.70
2022-08-11T13:03:31.108Z,1.88
2022-08-11T13:06:02.598Z,2.65
2022-08-11T13:08:34.007Z,1.80
2022-08-11T13:11:21.191Z,1.40
2022-08-11T13:13:52.439Z,2.53
2022-08-11T13:16:52.951Z,1.83
2022-08-11T13:19:22.087Z,1.65
2022-08-11T13:21:50.814Z,1.90
2022-08-11T13:24:20.269Z,3.20
2022-08-11T13:26:50.547Z,3.13
2022-08-11T13:29:25.386Z,1.58
2022-08-11T13:31:54.826Z,3.22
2022-08-11T13:34:26.877Z,4.65
2022-08-11T13:37:01.495Z,2.30
2022-08-11T13:39:32.228Z,1.83
2022-08-11T13:42:02.587Z,2.88
2022-08-11T13:44:32.817Z,1.77
2022-08-11T13:47:04.310Z,2.08
2022-08-11T13:49:36.038Z,1.88
2022-08-11T13:52:13.023Z,2.42
2022-08-11T13:54:42.793Z,1.50
2022-08-11T13:58:08.960Z,2.23
2022-08-11T14:00:23.659Z,2.00
2022-08-11T14:02:57.010Z,1.90
2022-08-11T14:05:32.673Z,2.92
2022-08-11T14:08:03.772Z,2.67
2022-08-11T14:10:33.267Z,2.05
2022-08-11T14:13:21.963Z,1.35
2022-08-11T14:15:52.473Z,1.60
2022-08-11T14:18:23.729Z,2.30
2022-08-11T14:21:14.183Z,1.58
2022-08-11T14:23:47.802Z,1.48
2022-08-11T14:26:23.544Z,2.03
2022-08-11T14:29:06.748Z,2.00
2022-08-11T14:31:58.352Z,1.80
2022-08-11T14:34:30.188Z,1.55
2022-08-11T14:37:11.225Z,1.67
2022-08-11T14:39:46.280Z,1.55
2022-08-11T14:42:35.601Z,1.88
2022-08-11T14:45:25.749Z,2.40
2022-08-11T14:48:13.443Z,1.67
2022-08-11T14:50:41.585Z,2.17
2022-08-11T14:53:15.051Z,1.77
2022-08-11T14:56:05.462Z,1.80
2022-08-11T14:58:45.397Z,1.60
2022-08-11T15:01:32.209Z,1.40
2022-08-11T15:04:35.108Z,1.55
2022-08-11T15:06:49.017Z,1.65
2022-08-11T15:09:17.626Z,2.03
2022-08-11T15:12:04.378Z,1.77
2022-08-11T15:14:55.848Z,1.80
2022-08-11T15:17:29.404Z,1.45
2022-08-11T15:20:34.253Z,1.85
2022-08-11T15:26:00.512Z,1.70
2022-08-11T15:28:51.337Z,2.13
2022-08-11T15:31:23.341Z,2.13
2022-08-11T15:34:12.504Z,1.40
2022-08-11T15:37:05.861Z,1.20
2022-08-11T15:40:05.968Z,1.85
2022-08-11T15:42:56.966Z,1.98
2022-08-11T15:45:44.593Z,2.45
2022-08-11T15:48:16.845Z,1.25
2022-08-11T15:50:52.360Z,2.40
2022-08-11T15:53:24.593Z,1.85
2022-08-11T15:55:53.489Z,2.42
2022-08-11T15:58:41.300Z,2.00
2022-08-11T16:01:28.850Z,2.42
2022-08-11T16:04:13.250Z,1.83
2022-08-11T16:07:18.801Z,1.80
2022-08-11T16:10:12.272Z,2.53
2022-08-11T16:13:07.754Z,2.35
2022-08-11T16:16:00.594Z,2.42
2022-08-11T16:18:42.935Z,1.90
2022-08-11T16:21:26.255Z,1.90
2022-08-11T16:25:57.736Z,2.03
2022-08-11T16:27:08.156Z,1.98
2022-08-11T16:29:44.877Z,2.05
2022-08-11T16:32:18.770Z,2.35
2022-08-11T16:35:09.027Z,1.90
2022-08-11T16:37:56.547Z,1.45
2022-08-11T16:40:25.400Z,1.80
2022-08-11T16:43:13.193Z,1.58
2022-08-11T16:46:01.397Z,2.35
2022-08-11T16:48:36.948Z,2.33
2022-08-11T16:51:07.523Z,2.30
2022-08-11T16:53:59.607Z,1.80
2022-08-11T16:56:27.977Z,1.40
2022-08-11T16:59:16.538Z,2.10
2022-08-11T17:01:53.716Z,1.60
2022-08-11T17:04:55.667Z,1.88
2022-08-11T17:07:45.271Z,1.58
2022-08-11T17:10:52.339Z,1.80
2022-08-11T17:13:44.633Z,1.08
2022-08-11T17:18:51.811Z,1.20
2022-08-11T17:21:24.059Z,1.88
2022-08-11T17:24:05.046Z,2.30
2022-08-11T17:26:58.441Z,1.83
2022-08-11T17:29:54.410Z,1.70
2022-08-11T17:33:00.459Z,2.03
2022-08-11T17:35:33.505Z,1.52
2022-08-11T17:38:20.336Z,2.08
2022-08-11T17:41:26.867Z,1.52
2022-08-11T17:44:14.712Z,1.02
2022-08-11T17:47:06.085Z,1.50
2022-08-11T17:49:38.037Z,1.88
2022-08-11T17:52:25.989Z,2.03
2022-08-11T17:55:14.950Z,2.17
2022-08-11T17:58:02.572Z,1.95
2022-08-11T18:00:31.932Z,1.80
2022-08-11T18:03:19.237Z,1.60
2022-08-11T18:05:49.277Z,2.28
2022-08-11T18:08:38.003Z,1.60
2022-08-11T18:12:06.426Z,1.40
2022-08-11T18:14:34.527Z,1.50
2022-08-11T18:17:22.126Z,1.83
2022-08-11T18:20:08.775Z,1.23
2022-08-11T18:23:03.284Z,2.28
2022-08-11T18:25:59.464Z,1.30
2022-08-11T18:28:51.527Z,2.70
2022-08-11T18:31:40.255Z,2.20
2022-08-11T18:34:30.423Z,1.52
2022-08-11T18:37:29.292Z,2.38
2022-08-11T18:40:22.117Z,1.90
2022-08-11T18:43:11.615Z,1.58
2022-08-11T18:46:06.285Z,1.38
2022-08-11T18:49:00.132Z,1.40
2022-08-11T18:51:47.322Z,2.15
2022-08-11T18:54:36.495Z,1.50
2022-08-11T18:57:25.437Z,2.22
2022-08-11T19:00:49.058Z,1.27
2022-08-11T19:03:43.220Z,1.52
2022-08-11T19:06:41.022Z,1.98
2022-08-11T19:09:31.650Z,3.17
2022-08-11T19:12:20.102Z,1.38
2022-08-11T19:15:09.472Z,1.60
2022-08-11T19:18:00.266Z,1.50
2022-08-11T19:20:49.532Z,1.52
2022-08-11T19:23:49.427Z,1.98
2022-08-11T19:26:36.380Z,1.65
2022-08-11T19:30:08.069Z,2.53
2022-08-11T19:32:33.161Z,2.00
2022-08-11T19:35:21.390Z,2.22
2022-08-11T19:38:09.615Z,1.85
2022-08-11T19:40:58.518Z,1.52
2022-08-11T19:43:48.652Z,1.40
2022-08-11T19:46:38.859Z,2.03
2022-08-11T19:49:27.440Z,2.35
2022-08-11T19:52:15.684Z,1.20
2022-08-11T19:55:04.407Z,1.17
2022-08-11T19:57:53.417Z,1.60
2022-08-11T20:00:42.045Z,1.70
2022-08-11T20:03:30.796Z,1.70
2022-08-11T20:06:21.508Z,1.30
2022-08-11T20:09:09.857Z,1.38
2022-08-11T20:12:02.542Z,1.77
2022-08-11T20:14:53.800Z,0.95
2022-08-11T20:17:44.699Z,1.85
2022-08-11T20:20:34.925Z,2.40
2022-08-11T20:23:25.299Z,1.63
2022-08-11T20:26:30.224Z,1.73
2022-08-11T20:29:19.307Z,1.73
2022-08-11T20:32:09.445Z,1.67
2022-08-11T20:37:50.189Z,1.52
2022-08-11T20:40:44.194Z,1.35
2022-08-11T20:44:08.380Z,1.67
2022-08-11T20:46:47.360Z,1.95
2022-08-11T20:49:44.923Z,1.60
2022-08-11T20:52:41.035Z,1.77
2022-08-11T20:55:52.271Z,2.33
2022-08-11T20:59:13.733Z,2.20
2022-08-11T21:01:52.177Z,1.63
2022-08-11T21:04:54.770Z,1.88
2022-08-11T21:07:57.175Z,1.92
2022-08-11T21:10:50.526Z,1.80
2022-08-11T21:13:42.912Z,1.52
2022-08-11T21:16:41.389Z,2.08
2022-08-11T21:19:56.383Z,2.08
2022-08-11T21:22:58.957Z,1.50
2022-08-11T21:26:02.276Z,1.85
2022-08-11T21:29:00.272Z,1.60
2022-08-11T21:31:49.728Z,1.52
2022-08-11T21:34:39.940Z,2.05
2022-08-11T21:37:27.859Z,1.50
2022-08-11T21:40:17.506Z,1.52
2022-08-11T21:43:07.259Z,1.35
2022-08-11T21:45:56.446Z,2.15
2022-08-11T21:48:47.819Z,1.58
2022-08-11T21:51:33.866Z,1.85
2022-08-11T21:54:21.025Z,2.08
2022-08-11T21:57:09.080Z,1.63
2022-08-11T22:00:11.843Z,1.70
2022-08-11T22:02:59.384Z,1.83
2022-08-11T22:05:47.257Z,1.83
2022-08-11T22:08:34.260Z,2.17
2022-08-11T22:11:31.700Z,2.45
2022-08-11T22:14:21.192Z,2.25
2022-08-11T22:17:07.625Z,1.83
2022-08-11T22:19:58.021Z,3.00
2022-08-11T22:22:52.957Z,2.47
2022-08-11T22:25:53.717Z,1.88
2022-08-11T22:28:41.980Z,1.85
2022-08-11T22:31:32.036Z,2.00
2022-08-11T22:34:19.105Z,3.63
2022-08-11T22:37:06.651Z,2.03
2022-08-11T22:40:01.692Z,2.47
2022-08-11T22:42:52.632Z,1.50
2022-08-11T22:45:39.963Z,1.90
2022-08-11T22:48:27.654Z,2.20
2022-08-11T22:51:14.405Z,3.42
2022-08-11T22:54:02.635Z,1.65
2022-08-11T22:56:50.523Z,2.22
2022-08-11T22:59:38.551Z,2.63
2022-08-11T23:02:26.179Z,2.47
2022-08-11T23:05:13.680Z,3.65
2022-08-11T23:08:00.637Z,3.28
2022-08-11T23:10:47.925Z,2.47
2022-08-11T23:13:36.461Z,1.77
2022-08-11T23:16:22.985Z,2.42
2022-08-11T23:19:09.700Z,2.30
2022-08-11T23:21:56.998Z,2.63
2022-08-11T23:24:44.241Z,1.90
2022-08-11T23:27:32.380Z,2.70
2022-08-11T23:30:23.728Z,2.92
2022-08-11T23:33:19.513Z,2.38
2022-08-11T23:36:09.514Z,2.33
2022-08-11T23:38:56.251Z,1.92
2022-08-11T23:41:42.444Z,2.15
2022-08-11T23:44:28.805Z,2.42
2022-08-11T23:47:18.005Z,2.65
2022-08-11T23:50:06.940Z,2.30
2022-08-11T23:52:54.581Z,1.75
2022-08-11T23:55:40.827Z,2.20
2022-08-11T23:58:27.966Z,2.28
